createdAt,value
2022-09-11T00:01:33.389Z,82.13
2022-09-11T00:04:00.530Z,82.04
2022-09-11T00:06:30.135Z,81.93
2022-09-11T00:09:04.102Z,82.11
2022-09-11T00:11:35.511Z,82.28
2022-09-11T00:14:02.755Z,82.31
2022-09-11T00:16:37.296Z,82.39
2022-09-11T00:19:08.748Z,82.19
2022-09-11T00:21:36.122Z,82.12
2022-09-11T00:24:04.080Z,82.52
2022-09-11T00:26:31.308Z,82.43
2022-09-11T00:28:58.335Z,82.31
2022-09-11T00:31:28.462Z,82.63
2022-09-11T00:33:56.424Z,82.86
2022-09-11T00:36:29.564Z,82.76
2022-09-11T00:38:58.092Z,82.86
2022-09-11T00:41:33.481Z,82.93
2022-09-11T00:44:07.453Z,82.61
2022-09-11T00:46:35.718Z,82.60
2022-09-11T00:49:22.022Z,83.22
2022-09-11T00:51:55.327Z,83.13
2022-09-11T00:54:32.462Z,83.65
2022-09-11T00:57:05.089Z,83.36
2022-09-11T00:59:34.436Z,83.26
2022-09-11T01:02:02.052Z,83.47
2022-09-11T01:04:29.455Z,83.26
2022-09-11T01:06:58.402Z,83.57
2022-09-11T01:09:30.955Z,83.82
2022-09-11T01:12:11.504Z,83.91
2022-09-11T01:15:05.392Z,84.01
2022-09-11T01:17:47.330Z,83.88
2022-09-11T01:20:32.524Z,83.97
2022-09-11T01:23:40.348Z,84.08
2022-09-11T01:26:26.588Z,84.36
2022-09-11T01:29:19.903Z,84.08
2022-09-11T01:32:11.934Z,84.16
2022-09-11T01:35:08.402Z,84.48
2022-09-11T01:38:03.956Z,85.00
2022-09-11T01:40:40.750Z,84.73
2022-09-11T01:43:15.671Z,84.86
2022-09-11T01:45:46.624Z,84.73
2022-09-11T01:48:18.547Z,85.14
2022-09-11T01:50:47.852Z,84.88
2022-09-11T01:53:22.414Z,84.64
2022-09-11T01:55:59.440Z,84.73
2022-09-11T01:58:30.893Z,84.80
2022-09-11T02:01:14.421Z,84.83
2022-09-11T02:03:50.923Z,85.09
2022-09-11T02:06:36.727Z,85.27
2022-09-11T02:09:09.729Z,84.94
2022-09-11T02:11:41.264Z,84.71
2022-09-11T02:14:10.690Z,85.04
2022-09-11T02:16:53.608Z,85.10
2022-09-11T02:19:26.117Z,85.11
2022-09-11T02:21:53.411Z,85.17
2022-09-11T02:24:22.911Z,85.20
2022-09-11T02:26:55.180Z,85.10
2022-09-11T02:29:22.688Z,85.39
2022-09-11T02:31:49.931Z,84.92
2022-09-11T02:34:18.239Z,85.01
2022-09-11T02:36:56.995Z,85.09
2022-09-11T02:39:46.632Z,85.04
2022-09-11T02:42:45.599Z,84.97
2022-09-11T02:45:15.004Z,85.16
2022-09-11T02:48:11.611Z,84.96
2022-09-11T02:51:09.675Z,85.44
2022-09-11T02:54:02.715Z,85.12
2022-09-11T02:56:46.611Z,85.18
2022-09-11T02:59:24.591Z,84.67
2022-09-11T03:01:55.424Z,85.11
2022-09-11T03:04:24.767Z,85.15
2022-09-11T03:06:53.488Z,84.96
2022-09-11T03:09:20.922Z,85.09
2022-09-11T03:11:48.099Z,85.04
2022-09-11T03:14:15.109Z,85.18
2022-09-11T03:16:41.962Z,85.08
2022-09-11T03:19:08.968Z,85.06
2022-09-11T03:21:36.330Z,85.28
2022-09-11T03:24:04.096Z,85.22
2022-09-11T03:26:33.184Z,85.07
2022-09-11T03:29:00.390Z,85.33
2022-09-11T03:31:28.525Z,85.49
2022-09-11T03:33:55.731Z,85.57
2022-09-11T03:36:22.924Z,85.25
2022-09-11T03:38:49.898Z,85.36
2022-09-11T03:41:16.965Z,85.07
2022-09-11T03:43:43.947Z,85.50
2022-09-11T03:46:10.857Z,85.41
2022-09-11T03:48:37.693Z,85.19
2022-09-11T03:51:05.934Z,85.48
2022-09-11T03:53:33.575Z,85.53
2022-09-11T03:56:00.578Z,85.70
2022-09-11T03:58:27.482Z,85.57
2022-09-11T04:00:54.323Z,85.31
2022-09-11T04:03:21.062Z,85.72
2022-09-11T04:06:03.547Z,85.75
2022-09-11T04:08:36.220Z,85.86
2022-09-11T04:11:06.079Z,85.65
2022-09-11T04:13:39.428Z,85.80
2022-09-11T04:16:14.712Z,85.57
2022-09-11T04:18:43.602Z,85.91
2022-09-11T04:21:15.217Z,85.95
2022-09-11T04:23:42.653Z,85.91
2022-09-11T04:26:19.013Z,85.87
2022-09-11T04:28:46.856Z,86.14
2022-09-11T04:31:16.089Z,85.77
2022-09-11T04:33:43.932Z,86.18
2022-09-11T04:36:17.964Z,86.09
2022-09-11T04:38:47.060Z,86.27
2022-09-11T04:41:15.966Z,86.45
2022-09-11T04:43:43.181Z,86.71
2022-09-11T04:46:17.062Z,86.20
2022-09-11T04:48:48.232Z,86.54
2022-09-11T04:51:30.283Z,86.48
2022-09-11T04:53:59.147Z,86.77
2022-09-11T04:56:32.462Z,86.70
2022-09-11T04:59:13.506Z,86.41
2022-09-11T05:01:40.908Z,86.38
2022-09-11T05:04:08.640Z,86.82
2022-09-11T05:06:38.068Z,87.13
2022-09-11T05:09:08.338Z,86.76
2022-09-11T05:11:36.259Z,86.56
2022-09-11T05:14:03.503Z,86.81
2022-09-11T05:16:31.070Z,86.67
2022-09-11T05:18:58.095Z,86.65
2022-09-11T05:21:27.141Z,86.81
2022-09-11T05:23:59.055Z,86.62
2022-09-11T05:26:35.096Z,86.54
2022-09-11T05:29:09.554Z,86.60
2022-09-11T05:31:37.440Z,86.63
2022-09-11T05:34:05.634Z,86.53
2022-09-11T05:36:33.640Z,86.49
2022-09-11T05:39:00.679Z,85.95
2022-09-11T05:41:28.279Z,86.31
2022-09-11T05:43:55.141Z,86.66
2022-09-11T05:46:22.480Z,86.41
2022-09-11T05:48:49.250Z,86.51
2022-09-11T05:51:19.720Z,86.58
2022-09-11T05:53:46.608Z,86.67
2022-09-11T05:56:20.420Z,86.89
2022-09-11T05:58:48.905Z,86.85
2022-09-11T06:01:19.786Z,86.79
2022-09-11T06:03:49.810Z,87.02
2022-09-11T06:06:19.627Z,87.04
2022-09-11T06:08:47.960Z,86.41
2022-09-11T06:11:18.183Z,86.16
2022-09-11T06:13:47.113Z,86.25
2022-09-11T06:16:22.929Z,86.30
2022-09-11T06:18:51.868Z,86.33
2022-09-11T06:21:25.659Z,86.06
2022-09-11T06:23:53.687Z,86.15
2022-09-11T06:26:24.983Z,85.78
2022-09-11T06:28:53.655Z,85.52
2022-09-11T06:31:24.606Z,85.19
2022-09-11T06:33:51.769Z,84.62
2022-09-11T06:36:26.735Z,84.31
2022-09-11T06:38:55.743Z,84.87
2022-09-11T06:41:23.197Z,84.52
2022-09-11T06:43:50.517Z,84.13
2022-09-11T06:46:23.175Z,84.24
2022-09-11T06:48:52.279Z,84.16
2022-09-11T06:51:21.413Z,84.61
2022-09-11T06:53:48.722Z,84.68
2022-09-11T06:56:18.096Z,84.50
2022-09-11T06:58:46.167Z,84.49
2022-09-11T07:01:19.352Z,84.77
2022-09-11T07:03:49.835Z,84.91
2022-09-11T07:06:19.627Z,84.94
2022-09-11T07:08:59.487Z,84.66
2022-09-11T07:11:26.918Z,85.32
2022-09-11T07:13:54.131Z,85.74
2022-09-11T07:16:21.073Z,86.65
2022-09-11T07:18:48.485Z,88.07
2022-09-11T07:21:22.224Z,88.59
2022-09-11T07:23:53.060Z,88.41
2022-09-11T07:26:21.183Z,89.14
2022-09-11T07:28:51.727Z,89.60
2022-09-11T07:31:26.144Z,90.20
2022-09-11T07:33:53.058Z,89.85
2022-09-11T07:36:23.616Z,89.95
2022-09-11T07:38:51.510Z,90.14
2022-09-11T07:41:21.417Z,89.84
2022-09-11T07:43:56.855Z,89.55
2022-09-11T07:46:27.184Z,89.59
2022-09-11T07:48:55.708Z,89.38
2022-09-11T07:51:22.595Z,89.33
2022-09-11T07:53:51.952Z,90.02
2022-09-11T07:56:25.026Z,90.09
2022-09-11T07:58:55.078Z,90.05
2022-09-11T08:01:30.904Z,89.79
2022-09-11T08:04:06.739Z,90.04
2022-09-11T08:06:37.118Z,89.80
2022-09-11T08:09:10.475Z,89.55
2022-09-11T08:11:40.669Z,89.47
2022-09-11T08:14:07.632Z,89.69
2022-09-11T08:16:36.468Z,89.55
2022-09-11T08:19:04.591Z,89.35
2022-09-11T08:21:31.718Z,88.91
2022-09-11T08:23:58.862Z,88.91
2022-09-11T08:26:30.519Z,88.68
2022-09-11T08:28:59.996Z,88.15
2022-09-11T08:31:28.025Z,87.65
2022-09-11T08:33:56.070Z,87.90
2022-09-11T08:36:24.419Z,87.37
2022-09-11T08:38:52.826Z,87.08
2022-09-11T08:41:25.895Z,86.88
2022-09-11T08:44:03.207Z,87.07
2022-09-11T08:46:45.885Z,87.23
2022-09-11T08:49:48.659Z,86.77
2022-09-11T08:52:16.974Z,86.64
2022-09-11T08:54:47.656Z,85.83
2022-09-11T08:57:58.384Z,86.11
2022-09-11T09:00:42.534Z,86.22
2022-09-11T09:03:38.355Z,86.57
2022-09-11T09:06:35.380Z,86.21
2022-09-11T09:09:18.517Z,86.50
2022-09-11T09:11:59.775Z,85.76
2022-09-11T09:14:51.857Z,85.80
2022-09-11T09:17:26.570Z,85.46
2022-09-11T09:20:14.199Z,85.66
2022-09-11T09:23:06.148Z,85.56
2022-09-11T09:25:40.488Z,85.70
2022-09-11T09:28:40.723Z,85.76
2022-09-11T09:31:12.021Z,85.61
2022-09-11T09:34:02.155Z,85.30
2022-09-11T09:36:48.886Z,85.43
2022-09-11T09:39:17.971Z,85.19
2022-09-11T09:42:21.864Z,85.13
2022-09-11T09:45:21.579Z,84.67
2022-09-11T09:47:49.282Z,84.13
2022-09-11T09:50:24.695Z,83.15
2022-09-11T09:53:11.195Z,82.23
2022-09-11T09:55:40.671Z,81.40
2022-09-11T09:58:07.841Z,80.40
2022-09-11T10:00:38.068Z,79.45
2022-09-11T10:03:34.615Z,79.67
2022-09-11T10:06:02.920Z,79.36
2022-09-11T10:08:38.059Z,79.09
2022-09-11T10:11:07.114Z,78.69
2022-09-11T10:13:41.817Z,78.24
2022-09-11T10:16:26.799Z,77.90
2022-09-11T10:18:56.182Z,77.03
2022-09-11T10:21:33.599Z,77.31
2022-09-11T10:24:23.448Z,77.02
2022-09-11T10:26:53.382Z,76.94
2022-09-11T10:29:27.083Z,76.42
2022-09-11T10:31:56.688Z,75.93
2022-09-11T10:34:28.623Z,75.71
2022-09-11T10:37:09.287Z,75.33
2022-09-11T10:39:37.925Z,75.07
2022-09-11T10:42:24.911Z,74.26
2022-09-11T10:44:54.947Z,74.53
2022-09-11T10:47:25.213Z,74.80
2022-09-11T10:50:18.164Z,74.06
2022-09-11T10:53:20.739Z,73.62
2022-09-11T10:56:00.500Z,73.78
2022-09-11T10:58:37.139Z,73.47
2022-09-11T11:01:04.279Z,73.76
2022-09-11T11:03:31.109Z,73.97
2022-09-11T11:06:12.848Z,73.59
2022-09-11T11:08:57.489Z,73.77
2022-09-11T11:11:56.250Z,73.05
2022-09-11T11:14:50.786Z,72.43
2022-09-11T11:18:12.133Z,71.78
2022-09-11T11:21:07.219Z,72.07
2022-09-11T11:24:01.824Z,71.28
2022-09-11T11:26:41.039Z,70.88
2022-09-11T11:29:28.688Z,70.96
2022-09-11T11:32:36.879Z,70.72
2022-09-11T11:35:47.160Z,70.27
2022-09-11T11:38:33.980Z,68.74
2022-09-11T11:41:12.580Z,69.41
2022-09-11T11:43:42.757Z,69.32
2022-09-11T11:46:38.846Z,70.17
2022-09-11T11:49:35.623Z,69.08
2022-09-11T11:52:23.467Z,68.98
2022-09-11T11:57:41.776Z,68.85
2022-09-11T12:00:17.023Z,67.67
2022-09-11T12:02:54.038Z,68.07
2022-09-11T12:05:28.434Z,67.49
2022-09-11T12:07:55.319Z,67.22
2022-09-11T12:10:31.931Z,67.00
2022-09-11T12:13:03.698Z,66.79
2022-09-11T12:15:34.419Z,66.56
2022-09-11T12:18:18.516Z,66.54
2022-09-11T12:20:46.453Z,66.07
2022-09-11T12:23:31.766Z,65.85
2022-09-11T12:26:22.292Z,66.61
2022-09-11T12:29:13.216Z,66.12
2022-09-11T12:31:52.188Z,66.38
2022-09-11T12:34:40.852Z,66.26
2022-09-11T12:37:25.388Z,65.96
2022-09-11T12:40:07.635Z,66.21
2022-09-11T12:42:34.384Z,66.24
2022-09-11T12:45:01.311Z,66.49
2022-09-11T12:47:36.433Z,65.91
2022-09-11T12:50:05.922Z,65.73
2022-09-11T12:52:55.073Z,65.38
2022-09-11T12:55:43.421Z,64.78
2022-09-11T12:58:19.100Z,65.27
2022-09-11T13:00:49.937Z,64.89
2022-09-11T13:03:24.835Z,64.41
2022-09-11T13:06:00.323Z,64.44
2022-09-11T13:08:34.431Z,64.61
2022-09-11T13:11:49.518Z,64.61
2022-09-11T13:14:28.536Z,64.40
2022-09-11T13:17:01.401Z,64.28
2022-09-11T13:19:39.379Z,63.48
2022-09-11T13:22:34.855Z,64.38
2022-09-11T13:25:18.837Z,63.91
2022-09-11T13:28:01.788Z,63.96
2022-09-11T13:30:29.083Z,63.55
2022-09-11T13:33:22.176Z,62.80
2022-09-11T13:35:50.394Z,63.41
2022-09-11T13:38:33.000Z,63.16
2022-09-11T13:41:14.762Z,62.81
2022-09-11T13:43:57.973Z,63.00
2022-09-11T13:46:28.968Z,62.76
2022-09-11T13:49:11.127Z,62.76
2022-09-11T13:51:44.028Z,62.15
2022-09-11T13:54:41.620Z,62.71
2022-09-11T13:57:23.148Z,62.62
2022-09-11T13:59:57.449Z,62.79
2022-09-11T14:02:43.951Z,62.46
2022-09-11T14:05:23.899Z,62.27
2022-09-11T14:08:10.108Z,62.13
2022-09-11T14:10:43.238Z,62.67
2022-09-11T14:13:27.900Z,62.58
2022-09-11T14:16:01.469Z,62.74
2022-09-11T14:18:45.587Z,62.18
2022-09-11T14:21:20.299Z,61.53
2022-09-11T14:23:53.008Z,61.10
2022-09-11T14:26:24.537Z,61.50
2022-09-11T14:28:59.686Z,61.61
2022-09-11T14:31:40.031Z,61.10
2022-09-11T14:34:20.988Z,61.14
2022-09-11T14:37:05.937Z,60.46
2022-09-11T14:39:44.665Z,60.15
2022-09-11T14:42:21.765Z,60.26
2022-09-11T14:44:49.642Z,60.09
2022-09-11T14:47:20.908Z,60.10
2022-09-11T14:49:48.940Z,59.47
2022-09-11T14:52:20.369Z,58.59
2022-09-11T14:54:47.733Z,58.36
2022-09-11T14:57:23.699Z,57.75
2022-09-11T14:59:51.300Z,57.80
2022-09-11T15:02:27.647Z,58.04
2022-09-11T15:04:56.909Z,57.60
2022-09-11T15:07:25.208Z,57.92
2022-09-11T15:09:53.787Z,57.87
2022-09-11T15:12:22.493Z,57.94
2022-09-11T15:14:58.399Z,58.30
2022-09-11T15:17:31.777Z,58.12
2022-09-11T15:20:00.760Z,58.40
2022-09-11T15:22:28.382Z,58.31
2022-09-11T15:24:56.702Z,58.72
2022-09-11T15:27:25.484Z,58.39
2022-09-11T15:29:52.689Z,58.57
2022-09-11T15:32:21.513Z,58.73
2022-09-11T15:34:48.476Z,59.07
2022-09-11T15:37:18.430Z,59.47
2022-09-11T15:39:45.358Z,59.48
2022-09-11T15:42:13.551Z,59.86
2022-09-11T15:44:40.318Z,59.71
2022-09-11T15:47:07.318Z,59.87
2022-09-11T15:49:41.137Z,59.73
2022-09-11T15:52:08.478Z,59.96
2022-09-11T15:54:35.398Z,60.07
2022-09-11T15:57:02.135Z,60.12
2022-09-11T15:59:28.936Z,60.06
2022-09-11T16:01:55.855Z,59.71
2022-09-11T16:04:28.512Z,59.90
2022-09-11T16:06:55.339Z,60.04
2022-09-11T16:09:26.976Z,59.89
2022-09-11T16:11:54.963Z,59.68
2022-09-11T16:14:27.514Z,59.94
2022-09-11T16:16:56.141Z,59.58
2022-09-11T16:19:28.201Z,59.27
2022-09-11T16:21:58.376Z,60.11
2022-09-11T16:24:27.738Z,60.23
2022-09-11T16:26:56.098Z,60.38
2022-09-11T16:29:42.926Z,60.54
2022-09-11T16:32:28.530Z,60.84
2022-09-11T16:34:57.528Z,60.79
2022-09-11T16:37:26.133Z,60.88
2022-09-11T16:39:53.135Z,60.85
2022-09-11T16:42:21.411Z,60.70
2022-09-11T16:44:49.792Z,60.50
2022-09-11T16:47:17.745Z,60.70
2022-09-11T16:50:06.103Z,60.86
2022-09-11T16:52:32.755Z,61.06
2022-09-11T16:54:59.892Z,60.78
2022-09-11T16:57:27.572Z,60.68
2022-09-11T16:59:54.759Z,60.88
2022-09-11T17:02:21.583Z,60.97
2022-09-11T17:04:48.658Z,60.66
2022-09-11T17:07:15.424Z,60.48
2022-09-11T17:09:43.936Z,60.30
2022-09-11T17:12:11.691Z,60.37
2022-09-11T17:14:38.947Z,60.54
2022-09-11T17:17:05.774Z,60.57
2022-09-11T17:19:32.500Z,60.78
2022-09-11T17:22:00.039Z,61.11
2022-09-11T17:24:26.879Z,61.39
2022-09-11T17:26:53.867Z,61.55
2022-09-11T17:29:20.631Z,61.79
2022-09-11T17:31:47.380Z,61.74
2022-09-11T17:34:15.006Z,61.88
2022-09-11T17:36:42.245Z,62.15
2022-09-11T17:39:09.680Z,62.53
2022-09-11T17:41:36.670Z,62.71
2022-09-11T17:44:04.262Z,62.73
2022-09-11T17:46:31.482Z,62.65
2022-09-11T17:48:58.309Z,62.70
2022-09-11T17:51:28.018Z,62.65
2022-09-11T17:53:58.388Z,62.65
2022-09-11T17:56:32.922Z,62.70
2022-09-11T17:59:00.910Z,62.99
2022-09-11T18:01:30.882Z,62.75
2022-09-11T18:03:59.657Z,62.52
2022-09-11T18:06:34.680Z,62.66
2022-09-11T18:09:06.243Z,62.57
2022-09-11T18:11:33.104Z,62.57
2022-09-11T18:14:00.479Z,62.46
2022-09-11T18:16:27.732Z,62.49
2022-09-11T18:18:55.826Z,62.67
2022-09-11T18:21:23.036Z,62.58
2022-09-11T18:23:49.924Z,62.42
2022-09-11T18:26:23.669Z,62.27
2022-09-11T18:28:50.676Z,62.01
2022-09-11T18:31:17.845Z,61.98
2022-09-11T18:33:45.208Z,62.18
2022-09-11T18:36:14.065Z,62.08
2022-09-11T18:38:40.800Z,61.94
2022-09-11T18:41:07.638Z,62.12
2022-09-11T18:43:34.579Z,62.00
2022-09-11T18:46:03.739Z,62.16
2022-09-11T18:48:30.632Z,61.76
2022-09-11T18:51:00.051Z,61.94
2022-09-11T18:53:27.406Z,61.76
2022-09-11T18:56:02.295Z,61.65
2022-09-11T18:58:34.005Z,61.82
2022-09-11T19:01:06.985Z,61.83
2022-09-11T19:03:34.417Z,61.81
2022-09-11T19:06:07.948Z,61.75
2022-09-11T19:08:40.566Z,61.54
2022-09-11T19:11:15.154Z,61.53
2022-09-11T19:13:43.018Z,61.56
2022-09-11T19:16:10.338Z,61.37
2022-09-11T19:18:39.196Z,61.22
2022-09-11T19:21:12.231Z,61.03
2022-09-11T19:23:44.719Z,61.36
2022-09-11T19:26:14.063Z,61.38
2022-09-11T19:28:43.287Z,61.25
2022-09-11T19:31:12.864Z,61.32
2022-09-11T19:33:41.760Z,61.57
2022-09-11T19:36:15.495Z,61.62
2022-09-11T19:38:43.092Z,61.68
2022-09-11T19:41:15.667Z,61.91
2022-09-11T19:43:44.568Z,61.93
2022-09-11T19:46:15.477Z,62.19
2022-09-11T19:48:44.375Z,62.38
2022-09-11T19:51:23.452Z,62.29
2022-09-11T19:53:53.131Z,62.51
2022-09-11T19:56:20.058Z,62.70
2022-09-11T19:58:47.089Z,62.89
2022-09-11T20:01:17.839Z,62.91
2022-09-11T20:03:46.322Z,62.96
2022-09-11T20:06:16.343Z,63.27
2022-09-11T20:08:45.779Z,63.22
2022-09-11T20:11:17.468Z,63.04
2022-09-11T20:13:44.665Z,63.25
2022-09-11T20:16:16.252Z,63.30
2022-09-11T20:18:44.189Z,63.25
2022-09-11T20:21:15.757Z,63.59
2022-09-11T20:23:44.852Z,63.72
2022-09-11T20:26:29.942Z,63.71
2022-09-11T20:29:03.329Z,63.68
2022-09-11T20:31:37.093Z,63.91
2022-09-11T20:34:07.489Z,63.97
2022-09-11T20:36:34.731Z,63.83
2022-09-11T20:39:01.583Z,63.88
2022-09-11T20:41:30.586Z,64.20
2022-09-11T20:44:00.506Z,64.03
2022-09-11T20:46:27.553Z,64.02
2022-09-11T20:48:54.989Z,63.59
2022-09-11T20:51:23.234Z,63.92
2022-09-11T20:53:50.508Z,63.83
2022-09-11T20:56:20.761Z,63.69
2022-09-11T20:58:48.304Z,63.90
2022-09-11T21:01:21.460Z,64.05
2022-09-11T21:03:52.324Z,63.76
2022-09-11T21:06:25.624Z,63.75
2022-09-11T21:08:59.394Z,63.67
2022-09-11T21:11:28.339Z,63.69
2022-09-11T21:13:55.368Z,63.91
2022-09-11T21:16:23.135Z,64.09
2022-09-11T21:18:53.715Z,64.19
2022-09-11T21:21:22.311Z,64.30
2022-09-11T21:23:49.940Z,64.35
2022-09-11T21:26:17.744Z,64.64
2022-09-11T21:28:45.018Z,64.80
2022-09-11T21:31:12.610Z,64.68
2022-09-11T21:33:40.141Z,64.73
2022-09-11T21:36:07.536Z,64.92
2022-09-11T21:38:34.903Z,65.01
2022-09-11T21:41:06.996Z,65.06
2022-09-11T21:43:33.876Z,65.14
2022-09-11T21:46:01.316Z,65.22
2022-09-11T21:48:32.365Z,65.48
2022-09-11T21:51:14.259Z,65.47
2022-09-11T21:53:44.708Z,65.62
2022-09-11T21:56:29.623Z,65.56
2022-09-11T21:58:57.589Z,65.49
2022-09-11T22:01:26.597Z,65.84
2022-09-11T22:03:54.890Z,65.89
2022-09-11T22:06:23.913Z,65.92
2022-09-11T22:08:51.240Z,66.27
2022-09-11T22:11:18.415Z,66.22
2022-09-11T22:13:47.792Z,66.37
2022-09-11T22:16:18.850Z,66.39
2022-09-11T22:18:51.215Z,66.50
2022-09-11T22:21:18.632Z,66.63
2022-09-11T22:23:45.973Z,66.92
2022-09-11T22:26:20.555Z,67.20
2022-09-11T22:28:47.820Z,67.08
2022-09-11T22:31:23.908Z,67.29
2022-09-11T22:33:51.629Z,67.56
2022-09-11T22:36:27.748Z,67.46
2022-09-11T22:38:54.870Z,67.53
2022-09-11T22:41:27.003Z,67.99
2022-09-11T22:43:53.747Z,67.77
2022-09-11T22:46:21.349Z,68.47
2022-09-11T22:48:49.171Z,68.11
2022-09-11T22:51:16.834Z,68.29
2022-09-11T22:53:44.166Z,68.67
2022-09-11T22:56:13.869Z,68.59
2022-09-11T22:58:41.461Z,68.88
2022-09-11T23:01:11.844Z,68.93
2022-09-11T23:03:38.805Z,69.03
2022-09-11T23:06:23.896Z,69.18
2022-09-11T23:08:50.839Z,69.29
2022-09-11T23:11:20.623Z,69.30
2022-09-11T23:13:51.754Z,69.60
2022-09-11T23:16:25.111Z,69.66
2022-09-11T23:19:03.749Z,69.84
2022-09-11T23:21:34.747Z,70.51
2022-09-11T23:24:03.211Z,70.12
2022-09-11T23:26:30.439Z,70.24
2022-09-11T23:28:57.559Z,70.66
2022-09-11T23:31:33.651Z,70.64
2022-09-11T23:34:05.120Z,70.90
2022-09-11T23:36:32.597Z,71.37
2022-09-11T23:39:00.419Z,71.60
2022-09-11T23:41:28.977Z,72.11
2022-09-11T23:43:56.004Z,72.61
2022-09-11T23:46:22.816Z,73.21
2022-09-11T23:48:50.035Z,73.50
2022-09-11T23:51:17.264Z,73.53
2022-09-11T23:53:45.368Z,74.29
2022-09-11T23:56:17.165Z,74.63
2022-09-11T23:58:45.843Z,74.68
